College Station, Arkansas
Current Conditions -  °F | °C
As of 12:53 AM on Friday 19 Dec 2014 (Local Time) from KLIT Reporting Station
Overcast Overcast  
Wind Chill: 38°   Ceiling: 600
Heat Index: 42°   Visibility: 7mi
Dew Point: 38°   Wind: 6mph
Humidity: 85%   Direction: 40°NE
Pressure: 30.23"   Gusts: NA
Location:  34.71°N, 92.22°W
Report Text: KLIT 190653Z 04005KT 7SM OVC006 06/03 A3023 RMK AO2 SLP239 T00560033
Loading
Personal Weather Stations






























Interactive Weather Map New forecast layout! Learn more

10-Day Weather Forecast

Advertisements
Track Severe Weather on mobile